createdAt,value
2022-10-05T00:00:06.596Z,100.00
2022-10-05T00:02:34.505Z,100.00
2022-10-05T00:05:02.048Z,100.00
2022-10-05T00:07:30.385Z,100.00
2022-10-05T00:09:59.823Z,100.00
2022-10-05T00:12:30.062Z,100.00
2022-10-05T00:15:01.052Z,100.00
2022-10-05T00:17:30.541Z,100.00
2022-10-05T00:19:57.947Z,100.00
2022-10-05T00:22:32.017Z,100.00
2022-10-05T00:25:02.138Z,100.00
2022-10-05T00:27:36.822Z,100.00
2022-10-05T00:30:19.147Z,100.00
2022-10-05T00:32:47.242Z,100.00
2022-10-05T00:35:16.826Z,100.00
2022-10-05T00:37:44.755Z,100.00
2022-10-05T00:40:24.196Z,100.00
2022-10-05T00:43:10.499Z,100.00
2022-10-05T00:46:24.113Z,100.00
2022-10-05T00:49:22.345Z,100.00
2022-10-05T00:52:22.095Z,100.00
2022-10-05T00:55:11.115Z,100.00
2022-10-05T00:58:16.865Z,100.00
2022-10-05T01:00:53.167Z,100.00
2022-10-05T01:03:51.095Z,100.00
2022-10-05T01:06:24.463Z,100.00
2022-10-05T01:09:19.783Z,100.00
2022-10-05T01:12:01.141Z,100.00
2022-10-05T01:14:40.157Z,100.00
2022-10-05T01:17:24.275Z,100.00
2022-10-05T01:20:24.241Z,100.00
2022-10-05T01:23:27.095Z,100.00
2022-10-05T01:26:03.766Z,100.00
2022-10-05T01:29:12.956Z,100.00
2022-10-05T01:32:02.740Z,100.00
2022-10-05T01:34:35.798Z,100.00
2022-10-05T01:37:23.964Z,100.00
2022-10-05T01:39:59.446Z,100.00
2022-10-05T01:42:36.774Z,100.00
2022-10-05T01:45:21.174Z,100.00
2022-10-05T01:48:04.409Z,100.00
2022-10-05T01:50:53.334Z,100.00
2022-10-05T01:53:38.693Z,100.00
2022-10-05T01:56:24.497Z,100.00
2022-10-05T01:58:55.000Z,100.00
2022-10-05T02:02:07.807Z,100.00
2022-10-05T02:05:00.811Z,100.00
2022-10-05T02:07:31.105Z,100.00
2022-10-05T02:10:12.293Z,100.00
2022-10-05T02:12:41.219Z,100.00
2022-10-05T02:15:19.752Z,100.00
2022-10-05T02:17:54.842Z,100.00
2022-10-05T02:20:27.899Z,100.00
2022-10-05T02:23:00.694Z,100.00
2022-10-05T02:25:33.473Z,100.00
2022-10-05T02:28:30.027Z,100.00
2022-10-05T02:31:07.978Z,100.00
2022-10-05T02:33:36.243Z,100.00
2022-10-05T02:36:29.842Z,100.00
2022-10-05T02:39:07.474Z,100.00
2022-10-05T02:41:58.564Z,100.00
2022-10-05T02:44:55.344Z,100.00
2022-10-05T02:47:29.867Z,100.00
2022-10-05T02:50:03.501Z,100.00
2022-10-05T02:52:53.263Z,100.00
2022-10-05T02:55:34.095Z,100.00
2022-10-05T02:58:13.789Z,100.00
2022-10-05T03:00:48.190Z,100.00
2022-10-05T03:03:27.834Z,100.00
2022-10-05T03:06:01.011Z,100.00
2022-10-05T03:08:52.950Z,100.00
2022-10-05T03:11:52.773Z,100.00
2022-10-05T03:14:37.899Z,100.00
2022-10-05T03:17:15.302Z,100.00
2022-10-05T03:20:10.813Z,100.00
2022-10-05T03:23:07.714Z,100.00
2022-10-05T03:25:45.463Z,100.00
2022-10-05T03:28:36.177Z,100.00
2022-10-05T03:31:25.949Z,100.00
2022-10-05T03:34:00.822Z,100.00
2022-10-05T03:36:49.822Z,100.00
2022-10-05T03:39:22.130Z,100.00
2022-10-05T03:42:03.502Z,100.00
2022-10-05T03:44:45.053Z,100.00
2022-10-05T03:47:40.003Z,100.00
2022-10-05T03:50:25.640Z,100.00
2022-10-05T03:53:07.002Z,100.00
2022-10-05T03:55:37.501Z,100.00
2022-10-05T03:58:20.598Z,100.00
2022-10-05T04:00:53.980Z,100.00
2022-10-05T04:03:24.829Z,100.00
2022-10-05T04:06:01.143Z,100.00
2022-10-05T04:09:14.472Z,100.00
2022-10-05T04:12:02.357Z,100.00
2022-10-05T04:14:37.164Z,100.00
2022-10-05T04:17:17.843Z,100.00
2022-10-05T04:20:22.608Z,100.00
2022-10-05T04:23:00.580Z,100.00
2022-10-05T04:25:39.782Z,100.00
2022-10-05T04:28:12.343Z,100.00
2022-10-05T04:30:43.672Z,100.00
2022-10-05T04:33:13.852Z,100.00
2022-10-05T04:36:18.401Z,100.00
2022-10-05T04:38:59.701Z,100.00
2022-10-05T04:42:04.912Z,100.00
2022-10-05T04:45:00.332Z,100.00
2022-10-05T04:47:36.771Z,100.00
2022-10-05T04:50:13.153Z,100.00
2022-10-05T04:53:34.832Z,100.00
2022-10-05T04:56:16.248Z,100.00
2022-10-05T04:58:54.281Z,100.00
2022-10-05T05:01:31.121Z,100.00
2022-10-05T05:04:39.189Z,100.00
2022-10-05T05:07:44.682Z,100.00
2022-10-05T05:10:49.898Z,100.00
2022-10-05T05:13:39.552Z,100.00
2022-10-05T05:16:37.958Z,100.00
2022-10-05T05:19:41.751Z,100.00
2022-10-05T05:22:34.412Z,100.00
2022-10-05T05:25:32.737Z,100.00
2022-10-05T05:28:32.558Z,100.00
2022-10-05T05:31:26.025Z,100.00
2022-10-05T05:34:10.544Z,100.00
2022-10-05T05:36:46.114Z,100.00
2022-10-05T05:39:36.522Z,100.00
2022-10-05T05:42:11.231Z,100.00
2022-10-05T05:44:48.119Z,100.00
2022-10-05T05:47:38.002Z,100.00
2022-10-05T05:50:25.771Z,100.00
2022-10-05T05:53:05.897Z,100.00
2022-10-05T05:55:40.191Z,100.00
2022-10-05T05:58:17.553Z,100.00
2022-10-05T06:00:48.850Z,100.00
2022-10-05T06:03:30.507Z,100.00
2022-10-05T06:06:04.326Z,100.00
2022-10-05T06:08:51.487Z,100.00
2022-10-05T06:11:40.067Z,100.00
2022-10-05T06:14:24.251Z,100.00
2022-10-05T06:17:01.271Z,100.00
2022-10-05T06:19:33.007Z,100.00
2022-10-05T06:22:35.781Z,100.00
2022-10-05T06:25:13.562Z,100.00
2022-10-05T06:28:08.458Z,100.00
2022-10-05T06:30:51.352Z,100.00
2022-10-05T06:33:34.181Z,100.00
2022-10-05T06:36:16.301Z,100.00
2022-10-05T06:39:22.596Z,100.00
2022-10-05T06:42:18.070Z,100.00
2022-10-05T06:45:54.629Z,100.00
2022-10-05T06:48:46.690Z,92.27
2022-10-05T06:51:38.501Z,89.62
2022-10-05T06:54:41.529Z,90.45
2022-10-05T06:57:42.680Z,83.71
2022-10-05T07:00:27.559Z,86.36
2022-10-05T07:03:13.356Z,100.00
2022-10-05T07:05:57.849Z,97.96
2022-10-05T07:08:34.337Z,97.86
2022-10-05T07:11:34.200Z,89.79
2022-10-05T07:14:05.560Z,84.66
2022-10-05T07:16:49.443Z,92.45
2022-10-05T07:19:24.905Z,92.76
2022-10-05T07:21:55.616Z,92.56
2022-10-05T07:24:34.849Z,96.82
2022-10-05T07:27:06.538Z,100.00
2022-10-05T07:30:07.955Z,100.00
2022-10-05T07:32:55.546Z,100.00
2022-10-05T07:35:50.486Z,100.00
2022-10-05T07:38:25.155Z,100.00
2022-10-05T07:40:59.550Z,100.00
2022-10-05T07:44:02.592Z,100.00
2022-10-05T07:46:46.898Z,100.00
2022-10-05T07:49:42.670Z,100.00
2022-10-05T07:52:41.618Z,100.00
2022-10-05T07:55:23.288Z,100.00
2022-10-05T07:58:08.645Z,100.00
2022-10-05T08:00:56.160Z,100.00
2022-10-05T08:03:36.225Z,100.00
2022-10-05T08:06:05.925Z,100.00
2022-10-05T08:08:42.905Z,97.67
2022-10-05T08:11:23.089Z,100.00
2022-10-05T08:14:06.370Z,98.73
2022-10-05T08:16:38.626Z,98.08
2022-10-05T08:19:14.489Z,96.39
2022-10-05T08:21:47.962Z,98.80
2022-10-05T08:24:54.110Z,99.21
2022-10-05T08:28:03.605Z,100.00
2022-10-05T08:30:35.860Z,100.00
2022-10-05T08:33:14.885Z,88.54
2022-10-05T08:35:45.054Z,84.04
2022-10-05T08:38:33.774Z,91.45
2022-10-05T08:41:21.229Z,88.93
2022-10-05T08:44:07.187Z,90.59
2022-10-05T08:46:56.531Z,78.82
2022-10-05T08:50:01.826Z,83.51
2022-10-05T08:52:36.625Z,78.18
2022-10-05T08:55:10.267Z,82.64
2022-10-05T08:57:55.378Z,83.19
2022-10-05T09:00:24.418Z,81.24
2022-10-05T09:03:25.828Z,81.14
2022-10-05T09:06:05.125Z,79.24
2022-10-05T09:08:44.864Z,83.31
2022-10-05T09:11:35.458Z,83.25
2022-10-05T09:15:01.480Z,79.32
2022-10-05T09:17:59.724Z,82.83
2022-10-05T09:20:38.918Z,86.06
2022-10-05T09:23:14.977Z,90.90
2022-10-05T09:25:52.536Z,90.42
2022-10-05T09:28:23.045Z,90.92
2022-10-05T09:30:58.050Z,86.77
2022-10-05T09:33:53.930Z,91.62
2022-10-05T09:36:27.540Z,82.71
2022-10-05T09:39:13.307Z,80.00
2022-10-05T09:41:55.998Z,78.95
2022-10-05T09:44:29.654Z,79.84
2022-10-05T09:47:41.528Z,74.82
2022-10-05T09:50:32.718Z,74.00
2022-10-05T09:53:21.514Z,66.16
2022-10-05T09:56:09.478Z,79.72
2022-10-05T09:59:07.514Z,71.32
2022-10-05T10:01:41.176Z,72.03
2022-10-05T10:04:24.846Z,64.97
2022-10-05T10:07:10.623Z,63.66
2022-10-05T10:09:50.058Z,65.95
2022-10-05T10:12:23.437Z,72.77
2022-10-05T10:15:01.876Z,69.80
2022-10-05T10:17:47.307Z,69.00
2022-10-05T10:20:35.616Z,71.18
2022-10-05T10:23:21.693Z,67.68
2022-10-05T10:26:11.918Z,68.65
2022-10-05T10:29:08.507Z,66.21
2022-10-05T10:32:02.062Z,69.06
2022-10-05T10:35:07.360Z,67.56
2022-10-05T10:37:52.906Z,66.55
2022-10-05T10:40:35.073Z,67.35
2022-10-05T10:43:40.129Z,65.89
2022-10-05T10:46:35.353Z,64.06
2022-10-05T10:49:15.807Z,65.54
2022-10-05T10:52:02.185Z,70.57
2022-10-05T10:54:49.147Z,72.45
2022-10-05T10:57:50.547Z,73.99
2022-10-05T11:00:33.264Z,77.64
2022-10-05T11:03:21.875Z,83.63
2022-10-05T11:10:03.283Z,77.66
2022-10-05T11:12:43.212Z,79.53
2022-10-05T11:15:43.400Z,76.97
2022-10-05T11:18:18.249Z,79.25
2022-10-05T11:21:23.217Z,81.83
2022-10-05T11:24:38.948Z,79.70
2022-10-05T11:30:31.308Z,82.28
2022-10-05T11:33:11.425Z,84.50
2022-10-05T11:35:41.886Z,86.24
2022-10-05T11:38:30.821Z,86.79
2022-10-05T11:41:07.233Z,86.67
2022-10-05T11:44:12.953Z,85.91
2022-10-05T11:47:08.885Z,80.55
2022-10-05T11:49:54.671Z,77.43
2022-10-05T11:52:42.470Z,78.18
2022-10-05T11:55:49.853Z,77.21
2022-10-05T11:58:26.345Z,77.98
2022-10-05T12:01:17.177Z,82.36
2022-10-05T12:03:59.645Z,77.85
2022-10-05T12:06:54.626Z,76.13
2022-10-05T12:09:40.498Z,75.79
2022-10-05T12:12:26.914Z,77.18
2022-10-05T12:15:04.622Z,78.64
2022-10-05T12:17:41.203Z,76.80
2022-10-05T12:20:21.008Z,78.42
2022-10-05T12:23:00.584Z,77.95
2022-10-05T12:26:01.551Z,80.15
2022-10-05T12:28:49.944Z,80.70
2022-10-05T12:31:20.503Z,78.05
2022-10-05T12:34:09.072Z,79.08
2022-10-05T12:37:08.290Z,83.63
2022-10-05T12:39:48.740Z,80.02
2022-10-05T12:42:30.042Z,75.35
2022-10-05T12:45:00.486Z,75.70
2022-10-05T12:47:56.000Z,74.23
2022-10-05T12:50:49.341Z,79.46
2022-10-05T12:53:54.312Z,82.03
2022-10-05T12:56:21.904Z,83.52
2022-10-05T12:58:59.441Z,86.67
2022-10-05T13:01:47.772Z,87.71
2022-10-05T13:04:22.007Z,84.59
2022-10-05T13:07:17.181Z,85.39
2022-10-05T13:10:03.256Z,88.58
2022-10-05T13:12:54.095Z,90.36
2022-10-05T13:15:28.870Z,86.99
2022-10-05T13:18:14.080Z,91.41
2022-10-05T13:20:52.011Z,92.93
2022-10-05T13:23:36.361Z,93.65
2022-10-05T13:26:08.091Z,92.25
2022-10-05T13:29:09.750Z,94.42
2022-10-05T13:31:55.640Z,94.12
2022-10-05T13:34:52.601Z,94.24
2022-10-05T13:38:16.802Z,95.37
2022-10-05T13:40:47.812Z,98.20
2022-10-05T13:43:39.650Z,100.00
2022-10-05T13:46:13.617Z,99.76
2022-10-05T13:48:54.211Z,100.00
2022-10-05T13:51:28.000Z,99.97
2022-10-05T13:54:14.490Z,100.00
2022-10-05T13:56:47.699Z,100.00
2022-10-05T13:59:36.581Z,100.00
2022-10-05T14:02:12.083Z,100.00
2022-10-05T14:05:14.223Z,100.00
2022-10-05T14:08:15.540Z,100.00
2022-10-05T14:10:46.348Z,100.00
2022-10-05T14:13:34.099Z,100.00
2022-10-05T14:16:13.802Z,100.00
2022-10-05T14:19:10.490Z,100.00
2022-10-05T14:21:58.696Z,100.00
2022-10-05T14:24:43.765Z,100.00
2022-10-05T14:27:36.570Z,100.00
2022-10-05T14:30:13.110Z,100.00
2022-10-05T14:32:51.579Z,100.00
2022-10-05T14:35:24.105Z,100.00
2022-10-05T14:37:58.653Z,100.00
2022-10-05T14:40:33.260Z,100.00
2022-10-05T14:43:21.116Z,100.00
2022-10-05T14:45:57.805Z,100.00
2022-10-05T14:48:30.150Z,100.00
2022-10-05T14:51:03.460Z,100.00
2022-10-05T14:53:38.789Z,100.00
2022-10-05T14:56:08.955Z,100.00
2022-10-05T14:59:11.359Z,100.00
2022-10-05T15:01:51.434Z,100.00
2022-10-05T15:04:37.088Z,100.00
2022-10-05T15:07:11.331Z,100.00
2022-10-05T15:10:01.739Z,100.00
2022-10-05T15:12:38.149Z,100.00
2022-10-05T15:15:25.528Z,100.00
2022-10-05T15:18:01.669Z,100.00
2022-10-05T15:20:47.398Z,100.00
2022-10-05T15:23:24.927Z,100.00
2022-10-05T15:25:56.820Z,100.00
2022-10-05T15:28:48.467Z,100.00
2022-10-05T15:31:30.160Z,100.00
2022-10-05T15:34:08.094Z,100.00
2022-10-05T15:37:01.889Z,100.00
2022-10-05T15:39:40.580Z,100.00
2022-10-05T15:42:15.377Z,100.00
2022-10-05T15:45:05.490Z,100.00
2022-10-05T15:47:50.061Z,100.00
2022-10-05T15:50:22.080Z,100.00
2022-10-05T15:53:20.049Z,100.00
2022-10-05T15:56:11.518Z,100.00
2022-10-05T15:58:53.145Z,100.00
2022-10-05T16:01:44.221Z,100.00
2022-10-05T16:04:30.339Z,100.00
2022-10-05T16:07:21.058Z,100.00
2022-10-05T16:10:02.458Z,100.00
2022-10-05T16:12:38.857Z,100.00
2022-10-05T16:15:26.401Z,100.00
2022-10-05T16:17:59.547Z,100.00
2022-10-05T16:20:50.308Z,100.00
2022-10-05T16:23:44.647Z,100.00
2022-10-05T16:26:32.799Z,100.00
2022-10-05T16:29:10.549Z,100.00
2022-10-05T16:31:44.154Z,100.00
2022-10-05T16:34:33.863Z,100.00
2022-10-05T16:37:23.768Z,100.00
2022-10-05T16:39:56.926Z,100.00
2022-10-05T16:42:30.757Z,100.00
2022-10-05T16:45:11.867Z,100.00
2022-10-05T16:48:00.873Z,100.00
2022-10-05T16:51:07.684Z,100.00
2022-10-05T16:53:47.464Z,100.00
2022-10-05T16:56:27.506Z,100.00
2022-10-05T16:59:04.486Z,100.00
2022-10-05T17:01:44.752Z,100.00
2022-10-05T17:04:31.624Z,100.00
2022-10-05T17:07:24.336Z,100.00
2022-10-05T17:10:01.123Z,100.00
2022-10-05T17:12:41.016Z,100.00
2022-10-05T17:15:33.085Z,100.00
2022-10-05T17:18:20.508Z,100.00
2022-10-05T17:21:02.686Z,100.00
2022-10-05T17:23:45.757Z,100.00
2022-10-05T17:26:33.306Z,100.00
2022-10-05T17:29:09.566Z,100.00
2022-10-05T17:32:11.417Z,100.00
2022-10-05T17:35:03.042Z,100.00
2022-10-05T17:37:37.473Z,100.00
2022-10-05T17:41:18.696Z,100.00
2022-10-05T17:44:13.713Z,100.00
2022-10-05T17:46:47.631Z,100.00
2022-10-05T17:49:23.604Z,100.00
2022-10-05T17:52:09.503Z,100.00
2022-10-05T17:55:09.052Z,100.00
2022-10-05T17:57:37.317Z,100.00
2022-10-05T18:00:09.557Z,100.00
2022-10-05T18:02:39.946Z,100.00
2022-10-05T18:05:12.898Z,100.00
2022-10-05T18:07:42.185Z,100.00
2022-10-05T18:10:12.308Z,100.00
2022-10-05T18:12:45.136Z,100.00
2022-10-05T18:15:25.016Z,100.00
2022-10-05T18:17:59.690Z,100.00
2022-10-05T18:20:32.068Z,100.00
2022-10-05T18:23:09.813Z,100.00
2022-10-05T18:26:13.772Z,100.00
2022-10-05T18:28:53.075Z,100.00
2022-10-05T18:31:52.835Z,100.00
2022-10-05T18:35:01.958Z,100.00
2022-10-05T18:37:54.717Z,100.00
2022-10-05T18:40:34.598Z,100.00
2022-10-05T18:43:11.854Z,100.00
2022-10-05T18:46:03.773Z,100.00
2022-10-05T18:48:38.826Z,100.00
2022-10-05T18:51:12.232Z,100.00
2022-10-05T18:53:49.577Z,100.00
2022-10-05T18:56:38.496Z,100.00
2022-10-05T18:59:05.995Z,100.00
2022-10-05T19:01:56.472Z,100.00
2022-10-05T19:04:47.472Z,100.00
2022-10-05T19:07:38.461Z,100.00
2022-10-05T19:10:25.636Z,100.00
2022-10-05T19:12:59.054Z,100.00
2022-10-05T19:15:49.177Z,100.00
2022-10-05T19:18:42.281Z,100.00
2022-10-05T19:21:37.935Z,100.00
2022-10-05T19:24:18.944Z,100.00
2022-10-05T19:27:07.456Z,100.00
2022-10-05T19:29:40.935Z,100.00
2022-10-05T19:32:34.156Z,100.00
2022-10-05T19:35:20.274Z,100.00
2022-10-05T19:37:50.676Z,100.00
2022-10-05T19:40:21.001Z,100.00
2022-10-05T19:43:03.624Z,100.00
2022-10-05T19:45:43.471Z,100.00
2022-10-05T19:48:36.431Z,100.00
2022-10-05T19:51:12.795Z,100.00
2022-10-05T19:53:47.207Z,100.00
2022-10-05T19:56:26.515Z,100.00
2022-10-05T19:58:56.634Z,100.00
2022-10-05T20:01:36.787Z,100.00
2022-10-05T20:04:05.465Z,100.00
2022-10-05T20:06:33.686Z,100.00
2022-10-05T20:09:19.403Z,100.00
2022-10-05T20:11:51.787Z,100.00
2022-10-05T20:14:31.365Z,100.00
2022-10-05T20:17:34.221Z,100.00
2022-10-05T20:20:25.658Z,100.00
2022-10-05T20:22:53.111Z,100.00
2022-10-05T20:25:20.511Z,100.00
2022-10-05T20:27:55.253Z,100.00
2022-10-05T20:30:28.096Z,100.00
2022-10-05T20:32:58.238Z,100.00
2022-10-05T20:35:29.625Z,100.00
2022-10-05T20:38:00.278Z,100.00
2022-10-05T20:40:29.338Z,100.00
2022-10-05T20:42:57.292Z,100.00
2022-10-05T20:45:25.010Z,100.00
2022-10-05T20:47:52.603Z,100.00
2022-10-05T20:50:23.014Z,100.00
2022-10-05T20:52:50.463Z,100.00
2022-10-05T20:55:17.967Z,100.00
2022-10-05T20:57:46.316Z,100.00
2022-10-05T21:00:14.040Z,100.00
2022-10-05T21:02:41.535Z,100.00
2022-10-05T21:05:09.808Z,100.00
2022-10-05T21:07:37.381Z,100.00
2022-10-05T21:10:05.298Z,100.00
2022-10-05T21:12:34.101Z,100.00
2022-10-05T21:15:04.810Z,100.00
2022-10-05T21:17:35.209Z,100.00
2022-10-05T21:20:02.806Z,100.00
2022-10-05T21:22:30.245Z,100.00
2022-10-05T21:24:58.535Z,100.00
2022-10-05T21:27:26.044Z,100.00
2022-10-05T21:29:53.583Z,100.00
2022-10-05T21:32:21.122Z,100.00
2022-10-05T21:34:48.525Z,100.00
2022-10-05T21:37:16.054Z,100.00
2022-10-05T21:39:43.724Z,100.00
2022-10-05T21:42:11.345Z,100.00
2022-10-05T21:44:38.820Z,100.00
2022-10-05T21:47:07.074Z,100.00
2022-10-05T21:49:36.184Z,100.00
2022-10-05T21:52:05.445Z,100.00
2022-10-05T21:54:34.069Z,100.00
2022-10-05T21:57:01.881Z,100.00
2022-10-05T21:59:33.944Z,100.00
2022-10-05T22:02:01.452Z,100.00
2022-10-05T22:04:29.063Z,100.00
2022-10-05T22:06:56.867Z,100.00
2022-10-05T22:09:24.482Z,100.00
2022-10-05T22:11:52.260Z,100.00
2022-10-05T22:14:19.804Z,100.00
2022-10-05T22:16:47.693Z,100.00
2022-10-05T22:19:18.813Z,100.00
2022-10-05T22:21:46.692Z,100.00
2022-10-05T22:24:14.153Z,100.00
2022-10-05T22:26:46.103Z,100.00
2022-10-05T22:29:15.939Z,100.00
2022-10-05T22:31:45.440Z,100.00
2022-10-05T22:34:13.872Z,100.00
2022-10-05T22:36:41.942Z,100.00
2022-10-05T22:39:09.443Z,100.00
2022-10-05T22:41:36.931Z,100.00
2022-10-05T22:44:04.730Z,100.00
2022-10-05T22:46:32.618Z,100.00
2022-10-05T22:49:00.180Z,100.00
2022-10-05T22:51:27.732Z,100.00
2022-10-05T22:53:55.183Z,100.00
2022-10-05T22:56:22.831Z,100.00
2022-10-05T22:58:51.173Z,100.00
2022-10-05T23:01:20.493Z,100.00
2022-10-05T23:03:48.372Z,100.00
2022-10-05T23:06:20.674Z,100.00
2022-10-05T23:08:48.382Z,100.00
2022-10-05T23:11:19.064Z,100.00
2022-10-05T23:13:46.556Z,100.00
2022-10-05T23:16:20.305Z,100.00
2022-10-05T23:18:49.473Z,100.00
2022-10-05T23:21:18.662Z,100.00
2022-10-05T23:23:53.364Z,100.00
2022-10-05T23:26:25.303Z,100.00
2022-10-05T23:28:53.062Z,100.00
2022-10-05T23:31:23.422Z,100.00
2022-10-05T23:33:51.784Z,100.00
2022-10-05T23:36:25.642Z,100.00
2022-10-05T23:38:53.362Z,100.00
2022-10-05T23:41:21.372Z,100.00
2022-10-05T23:43:49.033Z,100.00
2022-10-05T23:46:17.824Z,100.00
2022-10-05T23:48:45.423Z,100.00
2022-10-05T23:51:14.543Z,100.00
2022-10-05T23:53:42.072Z,100.00
2022-10-05T23:56:09.529Z,100.00
2022-10-05T23:58:37.221Z,100.00
